Time;durP1;ratioP1;P1;durP2;ratioP2;P2;SDS_P1;SDS_P2;PMS_P1;PMS_P2;Temp;Humidity;BMP_temperature;BMP_pressure;BME280_temperature;BME280_humidity;BME280_pressure;Samples;Min_cycle;Max_cycle;Signal;HPM_P1;HPM_P2
2023/03/15 00:01:22;;;;;;;11.52;3.70;;;;;;;0.87;100.00;101050.59;5072759;28;20032;-67
2023/03/15 00:03:47;;;;;;;16.23;4.10;;;;;;;0.84;100.00;101059.16;5072426;28;20048;-67
2023/03/15 00:06:13;;;;;;;14.10;3.75;;;;;;;0.83;100.00;101061.69;5071296;28;20028;-67
2023/03/15 00:08:38;;;;;;;15.57;4.13;;;;;;;0.93;100.00;101056.09;5072822;28;20487;-67
2023/03/15 00:11:04;;;;;;;13.43;3.92;;;;;;;0.90;100.00;101066.38;5072557;28;20032;-67
2023/03/15 00:13:30;;;;;;;15.63;4.05;;;;;;;0.96;100.00;101053.66;5072263;28;20035;-67
2023/03/15 00:15:58;;;;;;;14.45;4.05;;;;;;;0.93;100.00;101055.22;5072596;28;20037;-67
2023/03/15 00:18:23;;;;;;;15.68;4.25;;;;;;;0.92;100.00;101050.81;5068622;28;20435;-71
2023/03/15 00:20:49;;;;;;;15.75;4.40;;;;;;;0.88;100.00;101044.59;5072319;28;20035;-67
2023/03/15 00:23:15;;;;;;;16.92;4.35;;;;;;;0.85;100.00;101047.94;5072630;28;20036;-70
2023/03/15 00:25:44;;;;;;;15.88;4.38;;;;;;;0.85;100.00;101060.06;5072230;28;20439;-69
2023/03/15 00:28:09;;;;;;;18.00;4.80;;;;;;;0.84;100.00;101055.66;5072277;28;20107;-67
2023/03/15 00:30:35;;;;;;;16.98;4.72;;;;;;;0.84;100.00;101056.56;5072648;28;20051;-70
2023/03/15 00:33:00;;;;;;;17.52;4.90;;;;;;;0.84;100.00;101053.94;5072235;28;20025;-72
2023/03/15 00:35:26;;;;;;;16.35;4.60;;;;;;;0.77;100.00;101064.00;5072282;28;20079;-75
2023/03/15 00:37:55;;;;;;;17.67;4.72;;;;;;;0.74;100.00;101067.34;5073350;28;20029;-68
2023/03/15 00:40:21;;;;;;;18.55;4.97;;;;;;;0.74;100.00;101064.75;5075942;28;20024;-70
2023/03/15 00:42:49;;;;;;;18.70;5.00;;;;;;;0.77;100.00;101064.00;5076064;28;20510;-67
2023/03/15 00:45:15;;;;;;;18.23;4.95;;;;;;;0.80;100.00;101064.16;5075883;28;20060;-72
2023/03/15 00:47:41;;;;;;;16.95;4.93;;;;;;;0.82;100.00;101065.13;5075802;28;20029;-71
2023/03/15 00:50:07;;;;;;;18.40;4.65;;;;;;;0.84;100.00;101063.47;5075692;28;20052;-69
2023/03/15 00:52:36;;;;;;;20.00;5.07;;;;;;;0.82;100.00;101062.53;5075617;28;20395;-74
2023/03/15 00:55:03;;;;;;;20.52;4.95;;;;;;;0.85;100.00;101057.47;5075869;28;20125;-73
2023/03/15 00:57:31;;;;;;;20.45;5.10;;;;;;;0.91;100.00;101068.16;5075744;28;20086;-73
2023/03/15 00:59:56;;;;;;;17.55;4.68;;;;;;;0.95;100.00;101061.41;5075771;28;20049;-67
2023/03/15 01:02:21;;;;;;;16.50;4.65;;;;;;;0.95;100.00;101064.88;5075372;28;20053;-68
2023/03/15 01:04:50;;;;;;;17.30;4.82;;;;;;;0.97;100.00;101067.56;5075333;28;20056;-68
2023/03/15 01:07:15;;;;;;;18.83;5.00;;;;;;;0.95;100.00;101062.28;5075511;28;20028;-67
2023/03/15 01:09:41;;;;;;;17.65;4.90;;;;;;;0.98;100.00;101069.34;5075276;28;20029;-68
2023/03/15 01:12:06;;;;;;;17.25;5.00;;;;;;;0.99;100.00;101072.03;5075639;28;20391;-68
2023/03/15 01:14:34;;;;;;;16.92;5.07;;;;;;;1.01;100.00;101074.69;5075351;28;20093;-67
2023/03/15 01:16:59;;;;;;;20.88;5.90;;;;;;;1.02;100.00;101060.84;5075348;28;20040;-67
2023/03/15 01:19:24;;;;;;;20.77;6.05;;;;;;;1.04;100.00;101072.22;5075142;28;20029;-68
2023/03/15 01:21:50;;;;;;;20.90;6.80;;;;;;;1.04;100.00;101078.31;5075217;28;20042;-67
2023/03/15 01:24:15;;;;;;;23.42;8.35;;;;;;;1.09;100.00;101078.53;5075175;28;20024;-68
2023/03/15 01:26:40;;;;;;;23.70;9.57;;;;;;;1.10;100.00;101084.66;5075462;28;20419;-67
2023/03/15 01:29:06;;;;;;;25.23;11.55;;;;;;;1.13;100.00;101092.59;5075219;28;20120;-67
2023/03/15 01:31:32;;;;;;;27.27;13.75;;;;;;;1.15;100.00;101094.47;5074920;28;20021;-67
2023/03/15 01:45:53;;;;;;;31.88;20.25;;;;;;;1.07;100.00;101115.75;5074732;28;20017;-67
2023/03/15 01:48:38;;;;;;;33.00;20.85;;;;;;;1.11;100.00;101110.75;5074666;28;20108;-68
2023/03/15 01:51:15;;;;;;;32.97;21.35;;;;;;;1.08;100.00;101109.72;5071256;28;20378;-67
2023/03/15 01:53:44;;;;;;;33.42;22.23;;;;;;;1.06;100.00;101103.56;5074734;28;20471;-67
2023/03/15 01:56:10;;;;;;;36.67;24.92;;;;;;;1.04;100.00;101114.78;5074373;28;20069;-68
2023/03/15 01:58:38;;;;;;;36.65;25.17;;;;;;;1.02;100.00;101111.22;5074645;28;20417;-68
2023/03/15 02:01:05;;;;;;;38.92;25.90;;;;;;;1.00;100.00;101115.44;5074711;28;20067;-67
2023/03/15 02:03:36;;;;;;;36.70;26.02;;;;;;;0.99;100.00;101118.88;5074014;28;20500;-68
2023/03/15 02:06:08;;;;;;;39.65;26.75;;;;;;;1.02;100.00;101116.44;5074369;28;20086;-68
2023/03/15 02:08:40;;;;;;;41.13;27.30;;;;;;;1.03;100.00;101118.22;5074777;28;20484;-67
2023/03/15 02:11:06;;;;;;;39.95;27.20;;;;;;;1.02;100.00;101129.44;5074164;28;20263;-67
2023/03/15 02:13:33;;;;;;;42.00;28.17;;;;;;;0.98;100.00;101140.53;5074058;28;20494;-67
2023/03/15 02:15:59;;;;;;;43.35;30.65;;;;;;;0.95;100.00;101136.91;5074363;28;20486;-67
2023/03/15 02:18:24;;;;;;;46.03;31.17;;;;;;;0.94;100.00;101140.31;5074019;28;20025;-68
2023/03/15 02:20:59;;;;;;;42.70;28.70;;;;;;;0.96;100.00;101149.06;5073962;28;20029;-68
2023/03/15 02:23:25;;;;;;;45.67;29.98;;;;;;;0.88;100.00;101146.13;5070526;28;20017;-68
2023/03/15 02:26:02;;;;;;;43.22;29.23;;;;;;;0.89;100.00;101142.72;5074051;28;20107;-67
2023/03/15 02:28:29;;;;;;;44.40;30.30;;;;;;;0.87;100.00;101144.31;5070754;28;20017;-68
2023/03/15 02:30:54;;;;;;;42.47;28.90;;;;;;;0.89;100.00;101140.09;5073716;28;20036;-68
2023/03/15 02:33:27;;;;;;;46.45;31.63;;;;;;;0.85;100.00;101144.25;5073936;28;20443;-68
2023/03/15 02:35:54;;;;;;;46.30;31.70;;;;;;;0.90;100.00;101152.28;5073786;28;20379;-68
2023/03/15 02:38:21;;;;;;;46.47;32.95;;;;;;;0.93;100.00;101146.34;5073529;28;20031;-68
2023/03/15 02:40:48;;;;;;;49.08;32.75;;;;;;;0.90;100.00;101146.19;5074093;28;20040;-72
2023/03/15 02:43:22;;;;;;;47.90;32.25;;;;;;;0.93;100.00;101149.81;5073628;28;20033;-72
2023/03/15 02:45:48;;;;;;;47.28;32.35;;;;;;;0.93;100.00;101147.22;5073755;28;20017;-71
2023/03/15 02:48:15;;;;;;;45.53;30.95;;;;;;;0.93;100.00;101147.22;5074011;28;20098;-73
2023/03/15 02:50:40;;;;;;;42.60;28.58;;;;;;;0.91;100.00;101154.06;5073267;28;20031;-69
2023/03/15 02:53:06;;;;;;;37.00;23.50;;;;;;;0.92;100.00;101158.47;5073320;28;20024;-68
2023/03/15 02:55:34;;;;;;;35.40;21.98;;;;;;;0.91;100.00;101154.06;5073425;28;20059;-68
2023/03/15 02:58:00;;;;;;;35.33;20.40;;;;;;;0.86;100.00;101172.06;5073473;28;20111;-68
2023/03/15 03:00:26;;;;;;;34.05;21.08;;;;;;;0.77;100.00;101158.63;5072929;28;20467;-68
2023/03/15 03:02:52;;;;;;;34.88;21.33;;;;;;;0.71;100.00;101168.69;5073148;28;20051;-69
2023/03/15 03:05:17;;;;;;;35.92;21.63;;;;;;;0.65;100.00;101173.63;5073112;28;20396;-71
2023/03/15 03:07:43;;;;;;;35.33;21.83;;;;;;;0.58;100.00;101175.00;5073352;28;20024;-69
2023/03/15 03:10:11;;;;;;;36.33;22.33;;;;;;;0.51;100.00;101185.91;5073266;28;20020;-68
2023/03/15 03:12:36;;;;;;;36.75;22.98;;;;;;;0.45;100.00;101196.03;5073061;28;20111;-70
2023/03/15 03:15:03;;;;;;;37.20;22.80;;;;;;;0.42;100.00;101195.88;5072838;28;20112;-68
2023/03/15 03:17:29;;;;;;;37.28;23.00;;;;;;;0.34;100.00;101198.97;5073091;28;20035;-68
2023/03/15 03:19:54;;;;;;;35.80;22.70;;;;;;;0.31;100.00;101201.41;5072904;28;20025;-68
2023/03/15 03:22:23;;;;;;;36.47;22.45;;;;;;;0.26;100.00;101202.91;5073057;28;20033;-67
2023/03/15 03:24:51;;;;;;;35.63;21.30;;;;;;;0.17;100.00;101205.91;5073346;28;20500;-72
2023/03/15 03:27:17;;;;;;;34.97;20.92;;;;;;;0.07;100.00;101216.63;5072794;28;20029;-74
2023/03/15 03:29:42;;;;;;;35.22;21.27;;;;;;;0.00;100.00;101217.13;5072813;28;20047;-73
2023/03/15 03:32:08;;;;;;;36.13;20.83;;;;;;;-0.06;100.00;101220.31;5072941;28;20486;-67
2023/03/15 03:34:34;;;;;;;34.88;21.20;;;;;;;-0.10;100.00;101226.13;5072641;28;20036;-68
2023/03/15 03:37:00;;;;;;;35.10;21.20;;;;;;;-0.17;100.00;101224.03;5072609;28;20360;-68
2023/03/15 03:39:25;;;;;;;36.00;20.92;;;;;;;-0.25;100.00;101225.31;5073250;28;20039;-67
2023/03/15 03:41:51;;;;;;;33.88;19.75;;;;;;;-0.30;100.00;101242.38;5072580;28;20032;-67
2023/03/15 03:44:16;;;;;;;35.00;20.23;;;;;;;-0.33;100.00;101248.28;5072790;28;20025;-68
2023/03/15 03:46:42;;;;;;;35.55;20.60;;;;;;;-0.39;100.00;101248.84;5072733;28;20028;-67
2023/03/15 03:49:07;;;;;;;35.88;20.38;;;;;;;-0.48;100.00;101248.34;5072561;28;20029;-68
2023/03/15 03:51:36;;;;;;;37.80;20.77;;;;;;;-0.55;100.00;101251.41;5072590;28;20072;-68
2023/03/15 03:54:02;;;;;;;37.35;20.80;;;;;;;-0.54;100.00;101250.56;5072900;28;20471;-68
2023/03/15 03:56:28;;;;;;;37.92;21.95;;;;;;;-0.47;100.00;101255.28;5072520;28;20092;-68
2023/03/15 03:58:53;;;;;;;41.55;23.75;;;;;;;-0.47;100.00;101259.63;5072644;28;20503;-68
2023/03/15 04:01:21;;;;;;;40.78;23.35;;;;;;;-0.47;100.00;101251.81;5072827;28;20483;-68
2023/03/15 04:03:46;;;;;;;40.67;22.52;;;;;;;-0.51;100.00;101255.97;5072217;28;20098;-67
2023/03/15 04:06:12;;;;;;;41.72;23.40;;;;;;;-0.58;100.00;101257.31;5072592;28;20115;-68
2023/03/15 04:08:37;;;;;;;41.33;22.30;;;;;;;-0.62;100.00;101270.03;5072613;28;20035;-68
2023/03/15 04:11:02;;;;;;;44.00;24.15;;;;;;;-0.65;100.00;101275.06;5072583;28;20461;-68
2023/03/15 04:13:29;;;;;;;41.85;23.10;;;;;;;-0.67;100.00;101281.88;5074446;28;20028;-67
2023/03/15 04:15:56;;;;;;;41.83;23.88;;;;;;;-0.64;100.00;101284.63;5072167;28;20050;-68
2023/03/15 04:18:22;;;;;;;44.70;23.73;;;;;;;-0.65;100.00;101281.16;5076529;28;20487;-68
2023/03/15 04:20:48;;;;;;;42.63;24.10;;;;;;;-0.68;100.00;101278.38;5076609;28;20037;-68
2023/03/15 04:23:18;;;;;;;41.78;22.45;;;;;;;-0.68;100.00;101295.63;5076511;28;20029;-68
2023/03/15 04:25:47;;;;;;;43.42;22.65;;;;;;;-0.74;100.00;101297.09;5076578;28;20398;-68
2023/03/15 04:28:13;;;;;;;45.30;22.88;;;;;;;-0.77;100.00;101304.72;5076249;28;20068;-68
2023/03/15 04:30:38;;;;;;;42.30;22.52;;;;;;;-0.79;100.00;101302.81;5076576;28;20462;-68
2023/03/15 04:33:04;;;;;;;46.45;23.70;;;;;;;-0.87;100.00;101305.00;5075997;28;20036;-68
2023/03/15 04:35:34;;;;;;;43.45;23.10;;;;;;;-0.94;100.00;101308.91;5076038;28;20501;-68
2023/03/15 04:38:00;;;;;;;43.58;23.27;;;;;;;-0.97;100.00;101307.88;5076323;28;20017;-68
2023/03/15 04:40:25;;;;;;;46.50;22.80;;;;;;;-0.98;100.00;101308.66;5076048;28;20055;-67
2023/03/15 04:42:54;;;;;;;43.13;22.83;;;;;;;-0.99;100.00;101317.25;5075916;28;20095;-68
2023/03/15 04:45:20;;;;;;;44.65;23.13;;;;;;;-1.04;100.00;101319.56;5076030;28;20020;-68
2023/03/15 04:47:45;;;;;;;43.58;23.55;;;;;;;-1.08;100.00;101325.38;5076153;28;20388;-68
2023/03/15 04:50:12;;;;;;;45.90;23.65;;;;;;;-1.11;100.00;101326.09;5076201;28;20043;-68
2023/03/15 04:52:37;;;;;;;45.15;23.60;;;;;;;-1.14;100.00;101325.91;5075778;28;20036;-67
2023/03/15 04:55:03;;;;;;;43.00;24.15;;;;;;;-1.14;100.00;101325.03;5075593;28;20492;-69
2023/03/15 04:57:28;;;;;;;44.33;23.63;;;;;;;-1.14;100.00;101331.09;5075827;28;20032;-68
2023/03/15 04:59:53;;;;;;;44.10;22.88;;;;;;;-1.14;100.00;101333.69;5075735;28;20078;-68
2023/03/15 05:02:19;;;;;;;45.13;23.77;;;;;;;-1.16;100.00;101334.44;5075550;28;20076;-67
2023/03/15 05:04:44;;;;;;;47.53;23.92;;;;;;;-1.20;100.00;101337.66;5075599;28;20025;-68
2023/03/15 05:07:10;;;;;;;45.47;23.27;;;;;;;-1.21;100.00;101339.31;5075793;28;20028;-67
2023/03/15 05:09:37;;;;;;;46.45;23.90;;;;;;;-1.22;100.00;101340.16;5075314;28;20020;-67
2023/03/15 05:12:06;;;;;;;46.83;24.50;;;;;;;-1.30;100.00;101344.84;5075510;28;20047;-68
2023/03/15 05:14:31;;;;;;;47.28;24.52;;;;;;;-1.34;100.00;101349.78;5075340;28;20078;-68
2023/03/15 05:16:58;;;;;;;47.60;25.30;;;;;;;-1.37;100.00;101357.38;5075168;28;20032;-67
2023/03/15 05:19:24;;;;;;;46.33;24.45;;;;;;;-1.39;100.00;101361.59;5075597;28;20052;-67
2023/03/15 05:21:50;;;;;;;51.80;25.67;;;;;;;-1.39;100.00;101359.88;5075132;28;20054;-67
2023/03/15 05:24:15;;;;;;;47.80;24.88;;;;;;;-1.45;100.00;101354.31;5075000;28;20575;-68
2023/03/15 05:26:41;;;;;;;50.72;25.98;;;;;;;-1.49;100.00;101361.00;5075247;28;20455;-68
2023/03/15 05:29:06;;;;;;;53.33;26.00;;;;;;;-1.49;100.00;101361.00;5074947;28;20120;-67
2023/03/15 05:31:35;;;;;;;51.88;25.77;;;;;;;-1.42;100.00;101363.16;5075082;28;20025;-68
2023/03/15 05:34:03;;;;;;;49.53;25.40;;;;;;;-1.36;100.00;101365.25;5075069;28;20024;-68
2023/03/15 05:36:32;;;;;;;53.50;26.45;;;;;;;-1.32;100.00;101374.13;5074872;28;20060;-68
2023/03/15 05:38:57;;;;;;;50.72;25.67;;;;;;;-1.35;100.00;101376.53;5071029;28;20479;-67
2023/03/15 05:41:23;;;;;;;53.20;25.95;;;;;;;-1.32;100.00;101381.91;5075174;28;20074;-67
2023/03/15 05:43:49;;;;;;;53.05;26.45;;;;;;;-1.34;100.00;101376.63;5075027;28;20028;-67
2023/03/15 05:46:15;;;;;;;53.10;26.85;;;;;;;-1.34;100.00;101379.22;5074894;28;20111;-68
2023/03/15 05:48:40;;;;;;;55.47;26.88;;;;;;;-1.33;100.00;101382.69;5075144;28;20111;-68
2023/03/15 05:51:05;;;;;;;52.92;26.48;;;;;;;-1.41;100.00;101384.84;5074432;28;20399;-68
2023/03/15 05:53:31;;;;;;;58.10;27.80;;;;;;;-1.42;100.00;101388.22;5074739;28;20035;-68
2023/03/15 05:55:56;;;;;;;54.80;27.70;;;;;;;-1.44;100.00;101395.91;5074609;28;20032;-67
2023/03/15 05:58:21;;;;;;;52.65;25.48;;;;;;;-1.46;100.00;101394.91;5074717;28;20024;-67
2023/03/15 06:00:48;;;;;;;53.80;26.60;;;;;;;-1.41;100.00;101403.00;5074669;28;20024;-68
2023/03/15 06:03:14;;;;;;;54.53;27.48;;;;;;;-1.41;100.00;101396.09;5074177;28;20045;-68
2023/03/15 06:05:40;;;;;;;50.45;25.92;;;;;;;-1.39;100.00;101413.47;5074225;28;20037;-68
2023/03/15 06:08:05;;;;;;;53.72;27.27;;;;;;;-1.39;100.00;101416.06;5074652;28;20028;-67
2023/03/15 06:10:30;;;;;;;54.67;27.00;;;;;;;-1.37;100.00;101425.69;5074485;28;20440;-68
2023/03/15 06:12:56;;;;;;;54.67;28.20;;;;;;;-1.33;100.00;101426.81;5074183;28;20032;-67
2023/03/15 06:15:21;;;;;;;53.95;27.85;;;;;;;-1.31;100.00;101426.09;5074256;28;20044;-67
2023/03/15 06:17:47;;;;;;;60.20;29.13;;;;;;;-1.32;100.00;101423.41;5074230;28;20060;-68
2023/03/15 06:20:13;;;;;;;55.60;29.23;;;;;;;-1.30;100.00;101424.41;5073970;28;20035;-68
2023/03/15 06:22:38;;;;;;;61.28;29.70;;;;;;;-1.23;100.00;101430.03;5074129;28;20111;-68
2023/03/15 06:25:04;;;;;;;57.75;29.70;;;;;;;-1.11;100.00;101436.78;5073645;28;20055;-68
2023/03/15 06:27:32;;;;;;;65.97;31.38;;;;;;;-0.96;100.00;101442.94;5072524;28;20025;-74
2023/03/15 06:29:58;;;;;;;60.60;30.45;;;;;;;-0.80;100.00;101456.81;5071332;28;20029;-68
2023/03/15 06:32:23;;;;;;;62.78;30.63;;;;;;;-0.69;100.00;101462.66;5063727;28;20032;-68
2023/03/15 06:34:49;;;;;;;63.83;30.85;;;;;;;-0.62;100.00;101463.13;5064111;28;20020;-73
2023/03/15 06:37:15;;;;;;;59.42;29.48;;;;;;;-0.53;100.00;101460.16;5066376;28;20033;-72
2023/03/15 06:39:40;;;;;;;62.67;30.80;;;;;;;-0.45;100.00;101473.59;5062791;28;20025;-71
2023/03/15 06:42:07;;;;;;;59.17;30.63;;;;;;;-0.42;100.00;101466.91;5067639;28;21078;-72
2023/03/15 06:44:34;;;;;;;60.17;30.00;;;;;;;-0.40;100.00;101477.38;5063222;28;20075;-73
2023/03/15 06:46:59;;;;;;;58.15;30.73;;;;;;;-0.39;100.00;101482.66;5063588;28;20029;-72
2023/03/15 06:49:25;;;;;;;61.40;31.77;;;;;;;-0.33;100.00;101487.34;5060535;28;20435;-71
2023/03/15 06:51:50;;;;;;;59.70;31.05;;;;;;;-0.25;100.00;101490.38;5068234;28;20029;-73
2023/03/15 06:54:16;;;;;;;59.20;31.52;;;;;;;-0.22;100.00;101491.47;5072738;28;20447;-72
2023/03/15 06:56:41;;;;;;;61.08;30.98;;;;;;;-0.16;100.00;101496.13;5070757;28;20024;-72
2023/03/15 06:59:07;;;;;;;60.80;31.90;;;;;;;-0.12;100.00;101503.25;5071740;28;20097;-71
2023/03/15 07:01:32;;;;;;;60.10;32.22;;;;;;;-0.12;100.00;101502.38;5069189;28;20029;-73
2023/03/15 07:03:58;;;;;;;59.25;31.15;;;;;;;-0.15;100.00;101513.50;5069196;28;20051;-70
2023/03/15 07:06:23;;;;;;;57.20;30.80;;;;;;;-0.22;100.00;101507.06;5067849;28;20494;-69
2023/03/15 07:08:49;;;;;;;59.22;31.10;;;;;;;-0.28;100.00;101513.59;5071124;28;20033;-70
2023/03/15 07:11:14;;;;;;;59.00;31.75;;;;;;;-0.32;100.00;101520.31;5071460;28;20025;-70
2023/03/15 07:13:40;;;;;;;60.50;31.92;;;;;;;-0.34;100.00;101527.09;5070622;28;20625;-74
2023/03/15 07:16:05;;;;;;;57.72;30.90;;;;;;;-0.27;100.00;101530.97;5070381;28;20033;-72
2023/03/15 07:18:35;;;;;;;58.20;31.50;;;;;;;-0.18;100.00;101531.50;5073230;28;20051;-76
2023/03/15 07:21:02;;;;;;;56.47;30.23;;;;;;;-0.08;100.00;101531.22;5073109;28;20476;-74
2023/03/15 07:23:27;;;;;;;56.90;31.00;;;;;;;0.03;100.00;101543.97;5072130;28;20531;-73
2023/03/15 07:25:54;;;;;;;57.85;31.52;;;;;;;0.13;100.00;101546.28;5066625;28;20024;-76
2023/03/15 07:28:20;;;;;;;54.70;31.92;;;;;;;0.23;100.00;101556.41;5067668;28;20044;-73
2023/03/15 07:30:57;;;;;;;58.03;32.95;;;;;;;0.33;100.00;101558.72;5065702;28;20033;-73
2023/03/15 07:33:23;;;;;;;57.95;33.03;;;;;;;0.33;100.00;101550.94;5067430;28;20130;-76
2023/03/15 07:35:50;;;;;;;55.60;32.17;;;;;;;0.43;100.00;101557.56;5071079;28;20036;-76
2023/03/15 07:38:15;;;;;;;54.65;32.42;;;;;;;0.55;100.00;101567.75;5071444;28;20025;-75
2023/03/15 07:40:41;;;;;;;55.83;33.35;;;;;;;0.58;100.00;101567.03;5066949;28;20066;-73
2023/03/15 07:43:06;;;;;;;52.97;32.42;;;;;;;0.60;100.00;101575.84;5063655;28;20468;-72
2023/03/15 07:45:32;;;;;;;51.88;31.30;;;;;;;0.71;100.00;101579.03;5064967;28;20066;-72
2023/03/15 07:47:59;;;;;;;51.50;30.25;;;;;;;0.78;100.00;101578.56;5065852;28;20025;-72
2023/03/15 07:50:24;;;;;;;52.42;29.83;;;;;;;0.85;100.00;101579.00;5069503;28;20051;-71
2023/03/15 07:52:49;;;;;;;47.47;28.20;;;;;;;0.97;100.00;101578.78;5064562;28;20024;-71
2023/03/15 07:55:15;;;;;;;45.08;26.15;;;;;;;1.05;100.00;101587.03;5063365;28;20353;-72
2023/03/15 07:57:40;;;;;;;41.30;24.30;;;;;;;1.13;100.00;101590.03;5067680;28;20029;-71
2023/03/15 08:00:06;;;;;;;42.72;25.23;;;;;;;1.28;100.00;101606.50;5061857;28;20036;-71
2023/03/15 08:02:32;;;;;;;38.85;21.98;;;;;;;1.26;100.00;101602.03;5066994;28;20615;-71
2023/03/15 08:04:57;;;;;;;37.28;22.23;;;;;;;1.37;100.00;101612.22;5066131;28;20108;-72
2023/03/15 08:07:23;;;;;;;35.50;20.58;;;;;;;1.31;100.00;101606.69;5062325;28;20020;-72
2023/03/15 08:09:48;;;;;;;31.13;18.60;;;;;;;1.29;100.00;101612.59;5071301;28;20116;-72
2023/03/15 08:12:14;;;;;;;31.25;17.30;;;;;;;1.38;100.00;101624.44;5067529;28;20075;-71
2023/03/15 08:14:39;;;;;;;33.10;18.00;;;;;;;1.52;100.00;101635.59;5074044;28;20051;-71
2023/03/15 08:17:04;;;;;;;32.45;17.58;;;;;;;1.76;100.00;101639.41;5068059;28;20021;-71
2023/03/15 08:19:30;;;;;;;30.80;16.40;;;;;;;1.90;100.00;101652.34;5070190;28;20039;-72
2023/03/15 08:21:55;;;;;;;31.20;17.17;;;;;;;2.08;100.00;101644.63;5073609;28;20074;-71
2023/03/15 08:24:20;;;;;;;28.23;14.85;;;;;;;2.06;100.00;101642.75;5068315;28;20052;-70
2023/03/15 08:26:47;;;;;;;27.75;14.20;;;;;;;2.14;100.00;101646.66;5066805;28;20037;-70
2023/03/15 08:29:12;;;;;;;28.52;14.13;;;;;;;2.29;100.00;101649.13;5063859;28;20047;-70
2023/03/15 08:31:38;;;;;;;25.75;13.05;;;;;;;2.33;100.00;101655.41;5068882;28;20478;-70
2023/03/15 08:34:03;;;;;;;23.52;11.13;;;;;;;2.28;100.00;101651.66;5071300;28;20086;-70
2023/03/15 08:36:28;;;;;;;23.80;10.80;;;;;;;2.37;100.00;101662.56;5072200;28;20071;-72
2023/03/15 08:38:54;;;;;;;23.10;10.80;;;;;;;2.64;100.00;101651.72;5072074;28;20464;-72
2023/03/15 08:41:19;;;;;;;23.55;11.55;;;;;;;2.86;100.00;101658.91;5071858;28;20064;-71
2023/03/15 08:43:44;;;;;;;23.83;11.35;;;;;;;3.01;100.00;101659.63;5072153;28;20429;-70
2023/03/15 08:46:10;;;;;;;24.25;10.43;;;;;;;3.27;100.00;101662.59;5072041;28;20387;-70
2023/03/15 08:48:35;;;;;;;22.67;9.52;;;;;;;3.28;100.00;101665.28;5072152;28;20060;-69
2023/03/15 08:51:03;;;;;;;21.60;8.32;;;;;;;3.37;100.00;101677.00;5071948;28;20020;-71
2023/03/15 08:53:30;;;;;;;20.08;7.82;;;;;;;3.33;100.00;101669.84;5071904;28;20102;-71
2023/03/15 08:55:55;;;;;;;21.52;7.70;;;;;;;3.45;100.00;101673.00;5071857;28;20029;-70
2023/03/15 08:58:20;;;;;;;19.88;6.10;;;;;;;3.64;100.00;101664.28;5072095;28;20035;-70
2023/03/15 09:00:48;;;;;;;19.85;5.85;;;;;;;3.75;100.00;101665.69;5075518;28;20387;-71
2023/03/15 09:03:14;;;;;;;18.88;5.40;;;;;;;4.16;100.00;101665.72;5075177;28;20036;-72
2023/03/15 09:05:40;;;;;;;17.55;5.10;;;;;;;4.93;100.00;101670.69;5075549;28;20040;-72
2023/03/15 09:08:05;;;;;;;18.27;5.30;;;;;;;5.42;100.00;101675.25;5075404;28;20173;-70
2023/03/15 09:10:31;;;;;;;17.58;4.90;;;;;;;5.50;100.00;101671.19;5075431;28;20025;-72
2023/03/15 09:12:56;;;;;;;17.33;4.55;;;;;;;4.98;100.00;101679.59;5075196;28;20028;-72
2023/03/15 09:15:21;;;;;;;16.52;4.47;;;;;;;5.37;100.00;101671.53;5075123;28;20075;-70
2023/03/15 09:17:49;;;;;;;18.42;4.78;;;;;;;6.21;100.00;101679.06;5075608;28;20031;-70
2023/03/15 09:20:17;;;;;;;17.17;3.95;;;;;;;6.52;100.00;101681.88;5075125;28;20047;-79
2023/03/15 09:22:49;;;;;;;17.13;4.07;;;;;;;6.19;100.00;101680.75;5075315;28;20391;-78
2023/03/15 09:25:14;;;;;;;14.93;4.10;;;;;;;6.43;100.00;101671.94;5074986;28;20467;-72
2023/03/15 09:27:39;;;;;;;15.85;4.00;;;;;;;6.94;100.00;101677.16;5075085;28;20020;-74
2023/03/15 09:30:05;;;;;;;17.23;4.00;;;;;;;6.70;100.00;101673.69;5074983;28;20074;-70
2023/03/15 09:32:34;;;;;;;16.63;4.43;;;;;;;7.20;100.00;101682.34;5073846;28;20058;-69
2023/03/15 09:35:01;;;;;;;17.35;4.10;;;;;;;7.83;100.00;101676.38;5070317;28;20029;-69
2023/03/15 09:37:27;;;;;;;15.20;3.60;;;;;;;7.82;100.00;101676.28;5067903;28;20041;-74
2023/03/15 09:39:53;;;;;;;14.85;3.33;;;;;;;7.64;100.00;101681.94;5065373;28;20025;-75
2023/03/15 09:42:24;;;;;;;14.73;3.40;;;;;;;7.96;100.00;101674.94;5068435;28;20063;-73
2023/03/15 09:45:02;;;;;;;17.60;3.70;;;;;;;8.69;100.00;101683.09;5066650;28;20116;-78
2023/03/15 09:47:40;;;;;;;16.90;3.70;;;;;;;9.28;100.00;101679.22;5067909;28;20024;-77
2023/03/15 09:50:11;;;;;;;13.88;3.20;;;;;;;9.96;100.00;101685.97;5067574;28;20024;-71
2023/03/15 09:52:39;;;;;;;16.33;3.17;;;;;;;10.38;100.00;101684.16;5064876;28;20096;-76
2023/03/15 09:55:22;;;;;;;17.15;3.20;;;;;;;10.11;100.00;101694.19;5066462;28;20082;-78
2023/03/15 09:57:58;;;;;;;15.43;3.22;;;;;;;10.73;100.00;101687.44;5069566;28;20032;-76
2023/03/15 10:00:46;;;;;;;15.38;3.70;;;;;;;11.28;100.00;101686.53;5069288;28;20067;-75
2023/03/15 10:03:20;;;;;;;17.55;3.63;;;;;;;10.53;94.63;101691.47;5075547;28;20040;-74
2023/03/15 10:05:55;;;;;;;15.82;3.70;;;;;;;9.04;100.00;101696.28;5068051;28;20111;-74
2023/03/15 10:08:20;;;;;;;15.95;3.30;;;;;;;7.85;100.00;101690.47;5073227;28;20028;-78
2023/03/15 10:11:23;;;;;;;15.27;3.50;;;;;;;7.45;100.00;101688.38;5069520;28;20517;-76
2023/03/15 10:13:51;;;;;;;16.10;3.72;;;;;;;8.20;100.00;101677.38;5056940;28;20049;-78
2023/03/15 10:16:39;;;;;;;15.20;3.40;;;;;;;9.34;100.00;101678.47;5068669;28;20418;-74
2023/03/15 10:19:26;;;;;;;16.67;3.20;;;;;;;10.31;90.39;101685.78;5067067;28;20074;-74
2023/03/15 10:22:03;;;;;;;15.02;3.20;;;;;;;10.37;73.26;101682.38;5066499;28;20033;-72
2023/03/15 10:24:42;;;;;;;16.90;3.28;;;;;;;9.20;88.62;101684.34;5066049;28;20033;-77
2023/03/15 10:27:42;;;;;;;15.90;2.88;;;;;;;8.24;84.75;101688.00;5068910;28;20028;-71
2023/03/15 10:30:26;;;;;;;16.25;2.90;;;;;;;7.43;92.75;101688.31;5055931;28;20053;-72
2023/03/15 10:33:00;;;;;;;16.05;3.10;;;;;;;6.71;88.38;101686.91;5071737;28;20382;-76
2023/03/15 10:35:25;;;;;;;16.73;3.08;;;;;;;6.38;93.83;101691.91;5064958;28;20498;-69
2023/03/15 10:37:51;;;;;;;13.20;2.88;;;;;;;6.86;100.00;101686.53;5061734;28;20021;-68
2023/03/15 10:40:38;;;;;;;14.73;2.75;;;;;;;9.59;99.32;101695.75;5065526;28;20033;-69
2023/03/15 10:43:22;;;;;;;15.35;2.92;;;;;;;12.12;67.27;101700.03;5069327;28;20024;-69
2023/03/15 10:46:20;;;;;;;16.83;3.17;;;;;;;14.42;60.60;101698.06;5069008;28;20078;-69
2023/03/15 10:49:06;;;;;;;15.40;2.70;;;;;;;16.04;51.99;101704.13;5066142;28;20040;-70
2023/03/15 10:51:38;;;;;;;14.88;2.70;;;;;;;16.25;44.21;101704.00;5067349;28;20068;-70
2023/03/15 10:54:07;;;;;;;11.95;2.70;;;;;;;15.75;44.14;101706.88;5065263;28;20108;-69
2023/03/15 10:56:49;;;;;;;14.95;2.50;;;;;;;16.74;49.91;101717.91;5068004;28;20028;-69
2023/03/15 10:59:18;;;;;;;12.10;2.50;;;;;;;15.79;42.97;101713.13;5069767;28;20059;-69
2023/03/15 11:01:47;;;;;;;13.70;2.60;;;;;;;14.08;41.19;101722.81;5063352;28;20410;-69
2023/03/15 11:04:20;;;;;;;9.35;2.28;;;;;;;12.01;46.08;101714.91;5069170;28;20040;-69
2023/03/15 11:06:56;;;;;;;12.63;3.10;;;;;;;11.43;48.02;101723.84;5069600;28;20371;-69
2023/03/15 11:09:25;;;;;;;11.05;2.55;;;;;;;13.30;44.18;101722.34;5070201;28;20117;-69
2023/03/15 11:11:57;;;;;;;12.77;2.50;;;;;;;15.29;43.20;101713.22;5072991;28;20538;-69
2023/03/15 11:14:23;;;;;;;13.25;2.50;;;;;;;16.34;35.97;101731.53;5073119;28;20043;-69
2023/03/15 11:16:52;;;;;;;6.53;2.10;;;;;;;16.68;37.06;101728.66;5072835;28;20032;-69
2023/03/15 11:19:21;;;;;;;10.52;2.35;;;;;;;17.60;37.00;101737.69;5072851;28;20037;-69
2023/03/15 11:21:49;;;;;;;11.27;2.60;;;;;;;16.37;36.66;101739.53;5072901;28;20024;-70
2023/03/15 11:24:23;;;;;;;12.93;2.50;;;;;;;16.19;40.08;101743.19;5069049;28;20055;-70